createdAt,value
2018-08-17T00:00:17.353Z,7.17
2018-08-17T00:02:44.796Z,7.65
2018-08-17T00:05:12.299Z,7.80
2018-08-17T00:07:39.799Z,7.80
2018-08-17T00:10:07.266Z,7.92
2018-08-17T00:12:34.734Z,8.23
2018-08-17T00:15:02.236Z,7.73
2018-08-17T00:17:29.646Z,7.83
2018-08-17T00:19:57.059Z,7.67
2018-08-17T00:22:24.499Z,7.17
2018-08-17T00:24:51.899Z,7.45
2018-08-17T00:27:19.274Z,7.55
2018-08-17T00:29:46.799Z,7.87
2018-08-17T00:32:14.249Z,7.72
2018-08-17T00:34:41.698Z,7.70
2018-08-17T00:37:09.806Z,7.60
2018-08-17T00:39:37.713Z,7.47
2018-08-17T00:42:05.210Z,7.67
2018-08-17T00:44:32.617Z,8.13
2018-08-17T00:47:00.065Z,7.80
2018-08-17T00:49:27.542Z,7.80
2018-08-17T00:51:54.994Z,8.08
2018-08-17T00:54:22.401Z,8.15
2018-08-17T00:56:49.853Z,8.13
2018-08-17T00:59:17.292Z,8.13
2018-08-17T01:01:44.857Z,7.30
2018-08-17T01:04:12.322Z,7.60
2018-08-17T01:06:39.833Z,7.60
2018-08-17T01:09:08.418Z,7.55
2018-08-17T01:11:35.811Z,8.03
2018-08-17T01:14:03.304Z,7.85
2018-08-17T01:16:30.784Z,8.05
2018-08-17T01:18:58.240Z,8.23
2018-08-17T01:21:25.664Z,8.35
2018-08-17T01:23:53.118Z,8.17
2018-08-17T01:26:20.534Z,8.30
2018-08-17T01:28:47.878Z,8.50
2018-08-17T01:31:15.341Z,8.05
2018-08-17T01:33:42.912Z,8.25
2018-08-17T01:36:10.365Z,7.90
2018-08-17T01:38:37.820Z,8.13
2018-08-17T01:41:05.404Z,8.00
2018-08-17T01:43:32.848Z,7.75
2018-08-17T01:46:00.319Z,8.20
2018-08-17T01:48:27.691Z,8.35
2018-08-17T01:50:55.176Z,8.45
2018-08-17T01:53:22.572Z,8.83
2018-08-17T01:55:50.015Z,8.20
2018-08-17T01:58:17.541Z,9.00
2018-08-17T02:00:45.030Z,8.40
2018-08-17T02:03:12.592Z,8.40
2018-08-17T02:05:40.009Z,8.10
2018-08-17T02:08:07.514Z,8.40
2018-08-17T02:10:35.074Z,8.65
2018-08-17T02:13:02.436Z,8.48
2018-08-17T02:15:29.788Z,9.10
2018-08-17T02:17:57.332Z,8.48
2018-08-17T02:20:24.816Z,9.00
2018-08-17T02:22:52.336Z,8.90
2018-08-17T02:25:19.779Z,8.98
2018-08-17T02:27:47.273Z,9.30
2018-08-17T02:30:14.824Z,9.35
2018-08-17T02:32:42.260Z,8.98
2018-08-17T02:35:09.718Z,9.33
2018-08-17T02:37:37.212Z,9.80
2018-08-17T02:40:05.230Z,9.75
2018-08-17T02:42:32.814Z,10.05
2018-08-17T02:45:00.184Z,10.03
2018-08-17T02:47:27.614Z,10.20
2018-08-17T02:49:55.150Z,9.98
2018-08-17T02:52:22.606Z,10.48
2018-08-17T02:54:50.093Z,10.50
2018-08-17T02:57:17.631Z,10.58
2018-08-17T02:59:45.005Z,9.70
2018-08-17T03:02:12.413Z,9.73
2018-08-17T03:04:39.844Z,9.30
2018-08-17T03:07:07.396Z,9.23
2018-08-17T03:09:34.776Z,9.40
2018-08-17T03:12:08.495Z,9.85
2018-08-17T03:14:35.885Z,10.10
2018-08-17T03:17:03.319Z,10.82
2018-08-17T03:19:30.911Z,10.80
2018-08-17T03:21:58.339Z,10.20
2018-08-17T03:24:25.822Z,10.28
2018-08-17T03:26:53.323Z,9.68
2018-08-17T03:29:20.868Z,10.43
2018-08-17T03:31:48.247Z,10.20
2018-08-17T03:34:15.669Z,10.60
2018-08-17T03:36:43.110Z,10.25
2018-08-17T03:39:10.924Z,9.83
2018-08-17T03:41:38.572Z,9.48
2018-08-17T03:44:06.257Z,9.60
2018-08-17T03:46:33.813Z,9.75
2018-08-17T03:49:01.234Z,10.08
2018-08-17T03:51:28.752Z,10.40
2018-08-17T03:53:56.141Z,10.28
2018-08-17T03:56:23.656Z,10.08
2018-08-17T03:58:51.082Z,9.98
2018-08-17T04:01:18.408Z,9.80
2018-08-17T04:03:45.819Z,9.25
2018-08-17T04:06:13.220Z,9.13
2018-08-17T04:08:40.660Z,9.75
2018-08-17T04:11:08.124Z,9.68
2018-08-17T04:13:35.521Z,9.35
2018-08-17T04:16:03.027Z,9.60
2018-08-17T04:18:30.514Z,9.95
2018-08-17T04:20:57.872Z,10.05
2018-08-17T04:23:25.276Z,10.48
2018-08-17T04:25:52.860Z,9.90
2018-08-17T04:28:20.326Z,9.85
2018-08-17T04:30:47.839Z,9.88
2018-08-17T04:33:15.307Z,10.13
2018-08-17T04:35:42.754Z,9.53
2018-08-17T04:38:10.186Z,9.40
2018-08-17T04:40:37.632Z,9.57
2018-08-17T04:43:05.098Z,9.63
2018-08-17T04:45:32.609Z,9.23
2018-08-17T04:48:00.027Z,9.50
2018-08-17T04:50:27.403Z,9.75
2018-08-17T04:52:54.800Z,9.80
2018-08-17T04:55:22.394Z,9.58
2018-08-17T04:57:49.905Z,9.50
2018-08-17T05:00:17.289Z,9.58
2018-08-17T05:02:44.701Z,9.55
2018-08-17T05:05:12.067Z,9.98
2018-08-17T05:07:39.583Z,10.08
2018-08-17T05:10:07.724Z,10.20
2018-08-17T05:12:35.151Z,11.70
2018-08-17T05:15:02.688Z,11.40
2018-08-17T05:17:30.129Z,10.88
2018-08-17T05:19:57.487Z,10.93
2018-08-17T05:22:24.921Z,11.30
2018-08-17T05:24:52.412Z,11.22
2018-08-17T05:27:19.875Z,10.90
2018-08-17T05:29:47.267Z,11.10
2018-08-17T05:32:14.762Z,11.20
2018-08-17T05:34:42.205Z,11.75
2018-08-17T05:37:09.617Z,11.60
2018-08-17T05:39:37.149Z,10.70
2018-08-17T05:42:04.709Z,11.68
2018-08-17T05:44:32.135Z,11.08
2018-08-17T05:46:59.609Z,11.05
2018-08-17T05:49:27.021Z,10.88
2018-08-17T05:51:54.526Z,11.08
2018-08-17T05:54:22.091Z,10.45
2018-08-17T05:56:49.543Z,10.18
2018-08-17T05:59:16.874Z,10.53
2018-08-17T06:01:44.460Z,10.48
2018-08-17T06:04:11.966Z,10.43
2018-08-17T06:06:39.528Z,10.95
2018-08-17T06:09:08.118Z,11.08
2018-08-17T06:11:37.135Z,10.50
2018-08-17T06:14:05.235Z,10.45
2018-08-17T06:16:32.806Z,10.80
2018-08-17T06:19:03.186Z,10.78
2018-08-17T06:21:31.278Z,10.32
2018-08-17T06:23:58.782Z,9.80
2018-08-17T06:26:27.354Z,10.15
2018-08-17T06:31:37.483Z,10.10
2018-08-17T06:34:05.202Z,9.85
2018-08-17T06:36:34.701Z,9.53
2018-08-17T06:39:04.509Z,9.70
2018-08-17T06:41:32.010Z,10.08
2018-08-17T06:44:00.273Z,10.43
2018-08-17T06:46:34.983Z,9.70
2018-08-17T06:49:02.950Z,9.45
2018-08-17T06:51:37.375Z,9.97
2018-08-17T06:54:11.197Z,9.80
2018-08-17T06:56:44.621Z,9.28
2018-08-17T06:59:12.764Z,10.00
2018-08-17T07:01:40.324Z,9.83
2018-08-17T07:04:08.736Z,9.73
2018-08-17T07:06:40.019Z,9.40
2018-08-17T07:09:08.569Z,9.33
2018-08-17T07:11:49.614Z,8.95
2018-08-17T07:14:17.278Z,9.43
2018-08-17T07:16:45.275Z,9.33
2018-08-17T07:19:12.576Z,9.45
2018-08-17T07:21:40.301Z,8.80
2018-08-17T07:24:07.617Z,9.40
2018-08-17T07:26:35.079Z,9.15
2018-08-17T07:29:02.556Z,9.25
2018-08-17T07:31:29.883Z,9.03
2018-08-17T07:33:57.242Z,8.83
2018-08-17T07:36:24.708Z,8.80
2018-08-17T07:38:52.142Z,8.20
2018-08-17T07:41:19.601Z,8.43
2018-08-17T07:43:47.580Z,8.63
2018-08-17T07:46:15.377Z,8.33
2018-08-17T07:48:42.836Z,8.68
2018-08-17T07:51:10.205Z,7.80
2018-08-17T07:53:37.747Z,8.27
2018-08-17T07:56:05.520Z,8.20
2018-08-17T07:58:33.749Z,8.00
2018-08-17T08:01:01.769Z,8.00
2018-08-17T08:03:29.486Z,8.05
2018-08-17T08:06:16.089Z,7.85
2018-08-17T08:08:46.164Z,8.40
2018-08-17T08:11:14.047Z,8.30
2018-08-17T08:13:42.084Z,8.65
2018-08-17T08:16:09.536Z,8.30
2018-08-17T08:18:37.078Z,8.58
2018-08-17T08:21:04.803Z,8.85
2018-08-17T08:23:32.324Z,8.40
2018-08-17T08:25:59.821Z,8.20
2018-08-17T08:28:27.305Z,8.47
2018-08-17T08:30:54.679Z,7.87
2018-08-17T08:33:22.318Z,7.83
2018-08-17T08:35:50.137Z,8.10
2018-08-17T08:38:18.637Z,7.90
2018-08-17T08:40:46.681Z,7.55
2018-08-17T08:43:15.080Z,7.73
2018-08-17T08:45:42.929Z,7.92
2018-08-17T08:48:10.873Z,8.30
2018-08-17T08:50:38.700Z,7.28
2018-08-17T08:53:06.655Z,7.40
2018-08-17T08:55:34.103Z,7.25
2018-08-17T08:58:01.651Z,9.35
2018-08-17T09:00:29.275Z,8.08
2018-08-17T09:02:56.792Z,7.00
2018-08-17T09:05:24.259Z,7.05
2018-08-17T09:07:51.845Z,7.28
2018-08-17T09:10:19.375Z,7.70
2018-08-17T09:12:47.122Z,7.60
2018-08-17T09:15:14.619Z,7.58
2018-08-17T09:17:43.017Z,7.50
2018-08-17T09:20:12.968Z,7.33
2018-08-17T09:22:40.678Z,7.33
2018-08-17T09:25:08.371Z,7.10
2018-08-17T09:27:35.761Z,7.12
2018-08-17T09:30:04.043Z,6.70
2018-08-17T09:32:31.738Z,6.95
2018-08-17T09:34:59.214Z,7.00
2018-08-17T09:37:26.695Z,6.80
2018-08-17T09:39:54.118Z,6.78
2018-08-17T09:42:22.025Z,6.92
2018-08-17T09:44:49.491Z,6.90
2018-08-17T09:47:17.041Z,6.55
2018-08-17T09:49:44.678Z,6.67
2018-08-17T09:52:12.257Z,6.70
2018-08-17T09:54:39.663Z,6.50
2018-08-17T09:57:07.428Z,6.22
2018-08-17T09:59:34.898Z,6.40
2018-08-17T10:02:09.367Z,6.55
2018-08-17T10:04:44.544Z,6.97
2018-08-17T10:07:18.494Z,6.72
2018-08-17T10:09:51.854Z,6.60
2018-08-17T10:12:19.360Z,6.83
2018-08-17T10:14:46.935Z,7.05
2018-08-17T10:17:14.917Z,6.90
2018-08-17T10:19:42.423Z,7.15
2018-08-17T10:22:10.010Z,7.03
2018-08-17T10:24:37.471Z,6.90
2018-08-17T10:27:04.975Z,6.97
2018-08-17T10:29:32.444Z,7.35
2018-08-17T10:31:59.866Z,7.28
2018-08-17T10:34:27.389Z,7.67
2018-08-17T10:36:54.881Z,7.60
2018-08-17T10:39:38.698Z,7.53
2018-08-17T10:42:06.353Z,7.33
2018-08-17T10:44:34.000Z,7.50
2018-08-17T10:47:03.471Z,7.80
2018-08-17T10:49:32.926Z,7.65
2018-08-17T10:52:01.234Z,7.92
2018-08-17T10:54:29.932Z,7.20
2018-08-17T10:56:58.084Z,7.10
2018-08-17T10:59:26.640Z,7.00
2018-08-17T11:01:54.260Z,7.30
2018-08-17T11:04:21.776Z,6.97
2018-08-17T11:06:59.050Z,7.33
2018-08-17T11:09:33.401Z,7.50
2018-08-17T11:12:00.860Z,7.28
2018-08-17T11:14:28.469Z,7.25
2018-08-17T11:16:57.392Z,7.17
2018-08-17T11:19:24.764Z,17.50
2018-08-17T11:21:52.295Z,9.50
2018-08-17T11:24:19.663Z,7.62
2018-08-17T11:26:47.050Z,7.25
2018-08-17T11:29:14.767Z,7.00
2018-08-17T11:31:42.211Z,7.22
2018-08-17T11:34:11.559Z,7.37
2018-08-17T11:36:39.516Z,6.97
2018-08-17T11:39:07.381Z,6.97
2018-08-17T11:41:35.551Z,7.20
2018-08-17T11:44:06.944Z,6.90
2018-08-17T11:46:34.540Z,7.58
2018-08-17T11:49:02.108Z,7.30
2018-08-17T11:51:29.628Z,6.90
2018-08-17T11:53:57.204Z,7.40
2018-08-17T11:56:24.639Z,6.53
2018-08-17T11:58:52.234Z,6.72
2018-08-17T12:01:30.070Z,7.00
2018-08-17T12:03:58.280Z,7.45
2018-08-17T12:06:25.983Z,7.15
2018-08-17T12:08:53.977Z,7.28
2018-08-17T12:11:21.579Z,8.38
2018-08-17T12:13:48.958Z,9.15
2018-08-17T12:16:16.475Z,7.50
2018-08-17T12:18:44.118Z,7.35
2018-08-17T12:21:11.564Z,7.50
2018-08-17T12:23:39.038Z,7.65
2018-08-17T12:26:06.859Z,8.90
2018-08-17T12:28:34.395Z,7.58
2018-08-17T12:31:02.163Z,8.37
2018-08-17T12:33:29.685Z,9.38
2018-08-17T12:35:57.191Z,9.50
2018-08-17T12:38:24.949Z,8.35
2018-08-17T12:40:56.018Z,8.50
2018-08-17T12:43:31.981Z,12.18
2018-08-17T12:46:02.623Z,9.10
2018-08-17T12:48:30.500Z,8.73
2018-08-17T12:51:03.735Z,8.03
2018-08-17T12:53:31.306Z,9.00
2018-08-17T12:55:59.481Z,7.95
2018-08-17T12:58:39.878Z,8.55
2018-08-17T13:01:07.451Z,7.62
2018-08-17T13:03:35.465Z,7.65
2018-08-17T13:06:02.963Z,7.22
2018-08-17T13:08:32.801Z,6.80
2018-08-17T13:11:00.817Z,7.05
2018-08-17T13:13:28.414Z,7.03
2018-08-17T13:16:14.528Z,7.03
2018-08-17T13:18:42.137Z,7.10
2018-08-17T13:21:09.706Z,7.53
2018-08-17T13:23:37.417Z,25.52
2018-08-17T13:26:05.093Z,7.00
2018-08-17T13:28:32.674Z,7.90
2018-08-17T13:31:00.173Z,7.60
2018-08-17T13:33:27.933Z,8.58
2018-08-17T13:35:55.498Z,7.87
2018-08-17T13:38:23.047Z,11.63
2018-08-17T13:40:50.568Z,8.10
2018-08-17T13:43:18.074Z,9.63
2018-08-17T13:45:45.589Z,8.35
2018-08-17T13:48:13.213Z,8.93
2018-08-17T13:50:40.837Z,9.40
2018-08-17T13:53:08.358Z,9.65
2018-08-17T13:55:35.929Z,8.68
2018-08-17T13:58:04.496Z,8.93
2018-08-17T14:00:32.035Z,10.68
2018-08-17T14:02:59.434Z,10.63
2018-08-17T14:05:27.139Z,8.80
2018-08-17T14:07:54.692Z,13.95
2018-08-17T14:10:22.162Z,12.70
2018-08-17T14:12:49.627Z,8.80
2018-08-17T14:15:17.034Z,8.80
2018-08-17T14:17:44.434Z,8.78
2018-08-17T14:20:14.861Z,9.13
2018-08-17T14:22:47.215Z,8.73
2018-08-17T14:25:15.576Z,15.50
2018-08-17T14:27:43.040Z,11.45
2018-08-17T14:30:18.691Z,9.28
2018-08-17T14:32:50.811Z,9.20
2018-08-17T14:35:18.379Z,8.60
2018-08-17T14:37:46.487Z,11.60
2018-08-17T14:40:14.817Z,11.48
2018-08-17T14:42:42.530Z,9.90
2018-08-17T14:45:10.658Z,9.83
2018-08-17T14:47:40.208Z,10.00
2018-08-17T14:53:10.880Z,10.10
2018-08-17T14:55:38.556Z,9.68
2018-08-17T14:58:06.322Z,9.43
2018-08-17T15:00:33.922Z,9.78
2018-08-17T15:03:05.840Z,10.18
2018-08-17T15:05:33.436Z,10.25
2018-08-17T15:08:01.009Z,9.93
2018-08-17T15:10:47.413Z,10.30
2018-08-17T15:13:15.678Z,11.33
2018-08-17T15:15:54.341Z,11.53
2018-08-17T15:18:23.845Z,11.68
2018-08-17T15:20:51.442Z,12.68
2018-08-17T15:23:19.742Z,13.98
2018-08-17T15:25:56.063Z,13.47
2018-08-17T15:28:23.467Z,13.85
2018-08-17T15:30:50.974Z,13.80
2018-08-17T15:33:18.434Z,13.85
2018-08-17T15:35:45.886Z,13.75
2018-08-17T15:38:13.401Z,13.68
2018-08-17T15:40:40.909Z,13.83
2018-08-17T15:43:14.044Z,14.30
2018-08-17T15:45:41.488Z,14.10
2018-08-17T15:48:09.068Z,14.15
2018-08-17T15:50:36.547Z,13.93
2018-08-17T15:53:04.110Z,14.65
2018-08-17T15:55:33.079Z,10.75
2018-08-17T15:58:00.561Z,8.70
2018-08-17T16:00:28.195Z,7.87
2018-08-17T16:02:55.587Z,7.37
2018-08-17T16:05:23.035Z,6.67
2018-08-17T16:07:50.454Z,7.40
2018-08-17T16:10:18.040Z,6.50
2018-08-17T16:12:45.676Z,6.58
2018-08-17T16:15:13.255Z,6.92
2018-08-17T16:17:40.722Z,7.60
2018-08-17T16:20:09.617Z,7.92
2018-08-17T16:22:37.082Z,8.10
2018-08-17T16:25:05.059Z,8.88
2018-08-17T16:27:32.634Z,8.68
2018-08-17T16:30:00.112Z,8.60
2018-08-17T16:32:28.627Z,9.05
2018-08-17T16:34:56.028Z,9.43
2018-08-17T16:37:23.532Z,8.83
2018-08-17T16:39:54.011Z,10.03
2018-08-17T16:42:27.062Z,9.90
2018-08-17T16:44:55.018Z,9.40
2018-08-17T16:47:22.460Z,9.38
2018-08-17T16:49:49.991Z,8.85
2018-08-17T16:52:17.487Z,8.60
2018-08-17T16:54:45.017Z,7.10
2018-08-17T16:57:12.501Z,7.58
2018-08-17T16:59:39.936Z,7.65
2018-08-17T17:02:08.844Z,6.53
2018-08-17T17:04:39.457Z,6.60
2018-08-17T17:07:07.067Z,6.40
2018-08-17T17:09:34.515Z,6.63
2018-08-17T17:12:02.095Z,6.12
2018-08-17T17:14:29.678Z,6.40
2018-08-17T17:16:58.260Z,6.47
2018-08-17T17:19:25.641Z,6.37
2018-08-17T17:21:53.054Z,5.60
2018-08-17T17:24:20.717Z,5.00
2018-08-17T17:26:49.776Z,5.45
2018-08-17T17:29:17.258Z,5.37
2018-08-17T17:31:49.388Z,6.17
2018-08-17T17:34:16.720Z,6.35
2018-08-17T17:36:44.153Z,6.33
2018-08-17T17:39:12.933Z,6.37
2018-08-17T17:41:40.508Z,5.60
2018-08-17T17:44:08.174Z,5.08
2018-08-17T17:46:35.784Z,5.20
2018-08-17T17:49:03.334Z,5.30
2018-08-17T17:51:31.566Z,5.62
2018-08-17T17:53:58.926Z,6.10
2018-08-17T17:56:26.456Z,5.97
2018-08-17T17:58:59.668Z,6.33
2018-08-17T18:01:28.623Z,6.20
2018-08-17T18:03:56.123Z,6.30
2018-08-17T18:06:23.594Z,6.50
2018-08-17T18:08:51.095Z,6.50
2018-08-17T18:11:18.606Z,6.90
2018-08-17T18:13:46.154Z,6.40
2018-08-17T18:16:13.720Z,6.63
2018-08-17T18:18:41.371Z,6.40
2018-08-17T18:21:08.893Z,6.58
2018-08-17T18:23:36.341Z,6.62
2018-08-17T18:26:08.985Z,6.35
2018-08-17T18:28:36.443Z,6.67
2018-08-17T18:31:05.229Z,6.85
2018-08-17T18:33:32.666Z,7.28
2018-08-17T18:36:00.241Z,6.70
2018-08-17T18:38:27.696Z,6.87
2018-08-17T18:40:55.175Z,7.37
2018-08-17T18:43:22.658Z,7.75
2018-08-17T18:45:50.253Z,7.22
2018-08-17T18:48:17.992Z,7.97
2018-08-17T18:50:45.385Z,7.67
2018-08-17T18:53:12.838Z,8.03
2018-08-17T18:55:40.270Z,7.67
2018-08-17T18:58:07.857Z,6.87
2018-08-17T19:00:35.465Z,6.92
2018-08-17T19:03:03.048Z,6.95
2018-08-17T19:05:30.587Z,6.97
2018-08-17T19:07:58.018Z,7.50
2018-08-17T19:10:25.513Z,7.33
2018-08-17T19:12:53.028Z,7.50
2018-08-17T19:15:20.578Z,8.58
2018-08-17T19:17:48.048Z,7.10
2018-08-17T19:20:15.486Z,7.30
2018-08-17T19:22:44.379Z,7.80
2018-08-17T19:25:13.527Z,8.08
2018-08-17T19:27:41.575Z,8.03
2018-08-17T19:30:23.843Z,7.50
2018-08-17T19:32:53.067Z,8.13
2018-08-17T19:35:20.690Z,7.80
2018-08-17T19:37:48.992Z,7.00
2018-08-17T19:40:23.255Z,7.47
2018-08-17T19:42:51.380Z,7.30
2018-08-17T19:45:19.924Z,7.30
2018-08-17T19:47:47.420Z,7.22
2018-08-17T19:50:14.807Z,7.75
2018-08-17T19:52:42.572Z,7.17
2018-08-17T19:55:20.001Z,9.15
2018-08-17T19:57:47.612Z,8.28
2018-08-17T20:00:15.216Z,8.37
2018-08-17T20:02:42.629Z,8.10
2018-08-17T20:05:10.614Z,8.00
2018-08-17T20:07:38.817Z,7.67
2018-08-17T20:10:07.630Z,7.83
2018-08-17T20:12:35.084Z,7.40
2018-08-17T20:15:05.611Z,7.60
2018-08-17T20:17:49.587Z,6.90
2018-08-17T20:20:20.871Z,7.37
2018-08-17T20:22:49.391Z,7.55
2018-08-17T20:25:17.574Z,7.33
2018-08-17T20:27:45.623Z,6.92
2018-08-17T20:30:19.686Z,6.85
2018-08-17T20:32:47.182Z,7.00
2018-08-17T20:35:15.468Z,7.15
2018-08-17T20:37:55.163Z,7.33
2018-08-17T20:40:22.647Z,7.00
2018-08-17T20:42:51.576Z,7.50
2018-08-17T20:45:22.227Z,7.30
2018-08-17T20:47:49.708Z,7.08
2018-08-17T20:50:18.715Z,7.78
2018-08-17T20:52:57.685Z,7.87
2018-08-17T20:55:25.171Z,7.30
2018-08-17T20:57:53.794Z,7.25
2018-08-17T21:00:22.437Z,7.47
2018-08-17T21:02:50.294Z,7.30
2018-08-17T21:05:17.892Z,7.33
2018-08-17T21:07:50.149Z,7.70
2018-08-17T21:10:18.955Z,7.50
2018-08-17T21:12:47.253Z,7.70
2018-08-17T21:15:16.361Z,7.62
2018-08-17T21:17:44.046Z,7.58
2018-08-17T21:20:11.662Z,7.65
2018-08-17T21:22:39.234Z,7.42
2018-08-17T21:25:07.528Z,7.90
2018-08-17T21:27:35.058Z,7.67
2018-08-17T21:30:03.163Z,7.47
2018-08-17T21:32:32.985Z,7.05
2018-08-17T21:35:00.671Z,7.57
2018-08-17T21:37:28.142Z,7.78
2018-08-17T21:39:55.763Z,7.85
2018-08-17T21:42:23.354Z,7.80
2018-08-17T21:44:50.859Z,7.55
2018-08-17T21:47:18.413Z,7.58
2018-08-17T21:49:45.933Z,7.53
2018-08-17T21:52:18.968Z,7.60
2018-08-17T21:54:46.490Z,7.60
2018-08-17T21:57:14.001Z,7.25
2018-08-17T21:59:47.167Z,7.30
2018-08-17T22:02:14.865Z,8.33
2018-08-17T22:04:42.433Z,7.45
2018-08-17T22:07:15.600Z,7.85
2018-08-17T22:09:43.151Z,8.18
2018-08-17T22:12:11.347Z,7.72
2018-08-17T22:14:39.041Z,7.97
2018-08-17T22:17:11.118Z,8.23
2018-08-17T22:19:40.310Z,8.20
2018-08-17T22:22:09.870Z,8.05
2018-08-17T22:24:49.019Z,8.03
2018-08-17T22:27:17.883Z,8.13
2018-08-17T22:29:47.699Z,8.30
2018-08-17T22:32:15.373Z,8.50
2018-08-17T22:34:44.185Z,8.65
2018-08-17T22:37:11.838Z,8.40
2018-08-17T22:39:39.310Z,8.68
2018-08-17T22:42:07.019Z,8.07
2018-08-17T22:44:34.540Z,8.48
2018-08-17T22:47:19.567Z,8.23
2018-08-17T22:49:47.804Z,8.57
2018-08-17T22:52:15.307Z,9.03
2018-08-17T22:54:48.349Z,8.80
2018-08-17T22:57:16.333Z,8.60
2018-08-17T22:59:43.775Z,9.00
2018-08-17T23:02:11.350Z,8.80
2018-08-17T23:04:38.959Z,8.78
2018-08-17T23:07:06.360Z,8.95
2018-08-17T23:09:33.839Z,9.00
2018-08-17T23:12:01.349Z,9.43
2018-08-17T23:14:28.907Z,9.00
2018-08-17T23:16:56.398Z,9.28
2018-08-17T23:19:23.789Z,9.50
2018-08-17T23:21:51.215Z,10.15
2018-08-17T23:24:18.745Z,9.85
2018-08-17T23:26:46.085Z,10.10
2018-08-17T23:29:13.582Z,9.38
2018-08-17T23:31:41.062Z,9.70
2018-08-17T23:34:08.525Z,9.45
2018-08-17T23:36:35.890Z,9.65
2018-08-17T23:39:04.879Z,9.63
2018-08-17T23:41:32.318Z,10.00
2018-08-17T23:43:59.725Z,10.00
2018-08-17T23:46:27.223Z,10.78
2018-08-17T23:48:54.557Z,10.10
2018-08-17T23:51:21.958Z,9.60
2018-08-17T23:53:49.364Z,10.25
2018-08-17T23:56:16.819Z,10.40
2018-08-17T23:58:44.269Z,10.50
